createdAt,value
2023-05-22T00:01:45.601Z,13.02
2023-05-22T00:04:30.280Z,13.02
2023-05-22T00:07:30.475Z,13.02
2023-05-22T00:10:38.532Z,12.98
2023-05-22T00:13:55.426Z,12.94
2023-05-22T00:17:06.036Z,12.92
2023-05-22T00:19:57.177Z,12.90
2023-05-22T00:23:06.569Z,12.87
2023-05-22T00:26:16.273Z,12.84
2023-05-22T00:29:24.857Z,12.83
2023-05-22T00:32:23.782Z,12.80
2023-05-22T00:35:35.568Z,12.78
2023-05-22T00:38:39.502Z,12.75
2023-05-22T00:41:39.402Z,12.75
2023-05-22T00:44:49.299Z,12.72
2023-05-22T00:47:47.566Z,12.70
2023-05-22T00:50:56.439Z,12.69
2023-05-22T00:54:05.251Z,12.73
2023-05-22T00:56:58.181Z,12.74
2023-05-22T01:00:07.784Z,12.74
2023-05-22T01:03:11.082Z,12.76
2023-05-22T01:06:20.585Z,12.74
2023-05-22T01:09:31.517Z,12.70
2023-05-22T01:12:47.725Z,12.71
2023-05-22T01:15:41.054Z,12.72
2023-05-22T01:18:58.185Z,12.71
2023-05-22T01:22:06.270Z,12.69
2023-05-22T01:25:16.603Z,12.64
2023-05-22T01:28:35.865Z,12.61
2023-05-22T01:31:48.006Z,12.60
2023-05-22T01:34:57.680Z,12.59
2023-05-22T01:38:06.898Z,12.59
2023-05-22T01:40:59.465Z,12.60
2023-05-22T01:44:03.356Z,12.58
2023-05-22T01:47:06.226Z,12.58
2023-05-22T01:50:06.721Z,12.58
2023-05-22T01:53:15.996Z,12.57
2023-05-22T01:56:29.500Z,12.55
2023-05-22T01:59:51.591Z,12.53
2023-05-22T02:02:55.065Z,12.52
2023-05-22T02:06:06.591Z,12.51
2023-05-22T02:09:20.040Z,12.52
2023-05-22T02:12:30.408Z,12.54
2023-05-22T02:15:42.312Z,12.54
2023-05-22T02:18:52.252Z,12.53
2023-05-22T02:22:03.101Z,12.51
2023-05-22T02:25:03.241Z,12.50
2023-05-22T02:27:43.037Z,12.51
2023-05-22T02:30:51.881Z,12.51
2023-05-22T02:34:02.532Z,12.49
2023-05-22T02:37:12.656Z,12.48
2023-05-22T02:40:11.700Z,12.47
2023-05-22T02:42:57.411Z,12.46
2023-05-22T02:45:57.506Z,12.43
2023-05-22T02:49:08.196Z,12.38
2023-05-22T02:51:53.134Z,12.33
2023-05-22T02:54:35.017Z,12.29
2023-05-22T02:57:44.962Z,12.26
2023-05-22T03:00:53.906Z,12.23
2023-05-22T03:03:55.100Z,12.18
2023-05-22T03:07:02.290Z,12.11
2023-05-22T03:10:11.511Z,12.03
2023-05-22T03:13:20.508Z,11.97
2023-05-22T03:16:29.376Z,11.92
2023-05-22T03:19:35.220Z,11.85
2023-05-22T03:22:26.117Z,11.79
2023-05-22T03:25:27.039Z,11.74
2023-05-22T03:28:36.965Z,11.68
2023-05-22T03:31:40.228Z,11.62
2023-05-22T03:34:09.541Z,11.58
2023-05-22T03:36:59.632Z,11.56
2023-05-22T03:40:07.610Z,11.54
2023-05-22T03:43:18.478Z,11.54
2023-05-22T03:46:16.765Z,11.54
2023-05-22T03:49:07.247Z,11.55
2023-05-22T03:52:16.058Z,11.58
2023-05-22T03:55:16.972Z,11.60
2023-05-22T03:58:07.975Z,11.63
2023-05-22T04:01:12.848Z,11.65
2023-05-22T04:04:22.742Z,11.67
2023-05-22T04:07:32.846Z,11.70
2023-05-22T04:10:43.545Z,11.74
2023-05-22T04:13:53.468Z,11.78
2023-05-22T04:16:35.163Z,11.82
2023-05-22T04:19:37.344Z,11.85
2023-05-22T04:22:39.164Z,11.88
2023-05-22T04:25:40.042Z,11.88
2023-05-22T04:28:10.971Z,11.90
2023-05-22T04:31:13.682Z,11.93
2023-05-22T04:34:02.766Z,11.97
2023-05-22T04:37:11.880Z,12.01
2023-05-22T04:40:21.575Z,12.03
2023-05-22T04:43:14.478Z,12.09
2023-05-22T04:46:24.457Z,12.11
2023-05-22T04:49:10.441Z,12.12
2023-05-22T04:52:21.177Z,12.14
2023-05-22T04:55:24.332Z,12.16
2023-05-22T04:58:34.361Z,12.17
2023-05-22T05:01:35.071Z,12.18
2023-05-22T05:04:12.871Z,12.22
2023-05-22T05:07:12.816Z,12.25
2023-05-22T05:09:58.629Z,12.28
2023-05-22T05:12:31.518Z,12.31
2023-05-22T05:15:29.464Z,12.34
2023-05-22T05:18:23.378Z,12.35
2023-05-22T05:21:03.278Z,12.35
2023-05-22T05:24:13.150Z,12.35
2023-05-22T05:26:43.354Z,12.35
2023-05-22T05:29:32.869Z,12.37
2023-05-22T05:32:23.442Z,12.41
2023-05-22T05:34:53.803Z,12.45
2023-05-22T05:37:39.700Z,12.49
2023-05-22T05:40:33.605Z,12.53
2023-05-22T05:43:16.867Z,12.56
2023-05-22T05:46:15.181Z,12.58
2023-05-22T05:49:27.339Z,12.59
2023-05-22T05:52:07.279Z,12.61
2023-05-22T05:54:58.182Z,12.63
2023-05-22T05:57:36.276Z,12.64
2023-05-22T06:00:07.354Z,12.68
2023-05-22T06:02:54.020Z,12.72
2023-05-22T06:05:26.422Z,12.74
2023-05-22T06:07:58.765Z,12.79
2023-05-22T06:10:57.946Z,12.88
2023-05-22T06:13:35.568Z,13.02
2023-05-22T06:16:06.428Z,13.09
2023-05-22T06:18:36.168Z,13.14
2023-05-22T06:21:46.184Z,13.20
2023-05-22T06:24:24.270Z,13.26
2023-05-22T06:27:09.168Z,13.30
2023-05-22T06:30:09.063Z,13.36
2023-05-22T06:33:08.580Z,13.37
2023-05-22T06:35:50.820Z,13.36
2023-05-22T06:38:41.502Z,13.36
2023-05-22T06:41:30.020Z,13.38
2023-05-22T06:44:12.292Z,13.39
2023-05-22T06:47:04.281Z,13.39
2023-05-22T06:50:03.420Z,13.41
2023-05-22T06:52:56.112Z,13.47
2023-05-22T06:55:49.173Z,13.53
2023-05-22T06:58:58.827Z,13.58
2023-05-22T07:01:59.946Z,13.63
2023-05-22T07:04:31.876Z,13.67
2023-05-22T07:07:28.247Z,13.72
2023-05-22T07:10:30.702Z,13.77
2023-05-22T07:13:09.579Z,13.80
2023-05-22T07:15:58.631Z,13.83
2023-05-22T07:18:51.482Z,13.87
2023-05-22T07:21:26.729Z,13.87
2023-05-22T07:24:24.256Z,13.87
2023-05-22T07:27:13.855Z,13.88
2023-05-22T07:29:54.435Z,13.92
2023-05-22T07:33:05.005Z,13.94
2023-05-22T07:35:44.671Z,13.94
2023-05-22T07:38:36.676Z,13.95
2023-05-22T07:41:15.757Z,13.94
2023-05-22T07:44:15.309Z,13.95
2023-05-22T07:46:55.872Z,13.94
2023-05-22T07:50:04.462Z,13.94
2023-05-22T07:53:14.365Z,13.89
2023-05-22T07:56:08.541Z,13.88
2023-05-22T07:59:18.110Z,13.87
2023-05-22T08:02:16.068Z,13.86
2023-05-22T08:04:53.951Z,13.84
2023-05-22T08:08:03.274Z,13.87
2023-05-22T08:14:02.610Z,13.92
2023-05-22T08:16:52.213Z,13.96
2023-05-22T08:20:02.556Z,14.02
2023-05-22T08:23:01.844Z,14.08
2023-05-22T08:26:10.758Z,14.11
2023-05-22T08:29:12.091Z,14.16
2023-05-22T08:32:22.078Z,14.18
2023-05-22T08:35:22.059Z,14.22
2023-05-22T08:38:01.809Z,14.28
2023-05-22T08:40:54.029Z,14.33
2023-05-22T08:43:56.024Z,14.42
2023-05-22T08:46:38.795Z,14.56
2023-05-22T08:49:27.786Z,14.75
2023-05-22T08:52:32.463Z,14.90
2023-05-22T08:55:43.823Z,14.97
2023-05-22T08:58:54.531Z,14.98
2023-05-22T09:01:35.056Z,15.00
2023-05-22T09:04:45.229Z,15.00
2023-05-22T09:07:45.440Z,15.02
2023-05-22T09:10:54.142Z,15.05
2023-05-22T09:13:37.163Z,15.14
2023-05-22T09:16:33.218Z,15.18
2023-05-22T09:19:32.033Z,15.21
2023-05-22T09:22:44.440Z,15.17
2023-05-22T09:25:53.780Z,15.18
2023-05-22T09:28:44.709Z,15.21
2023-05-22T09:31:16.708Z,15.24
2023-05-22T09:33:49.000Z,15.27
2023-05-22T09:36:50.915Z,15.35
2023-05-22T09:39:42.395Z,15.44
2023-05-22T09:42:51.589Z,15.51
2023-05-22T09:45:43.132Z,15.58
2023-05-22T09:48:47.413Z,15.68
2023-05-22T09:51:46.432Z,15.77
2023-05-22T09:54:49.962Z,15.95
2023-05-22T09:57:28.753Z,16.04
2023-05-22T10:00:28.117Z,16.12
2023-05-22T10:03:28.835Z,16.27
2023-05-22T10:06:13.706Z,16.43
2023-05-22T10:09:10.867Z,16.45
2023-05-22T10:12:04.272Z,16.44
2023-05-22T10:15:11.806Z,16.41
2023-05-22T10:18:20.941Z,16.36
2023-05-22T10:21:10.821Z,16.30
2023-05-22T10:24:04.933Z,16.24
2023-05-22T10:27:03.912Z,16.19
2023-05-22T10:29:49.398Z,16.15
2023-05-22T10:32:56.022Z,16.08
2023-05-22T10:36:03.481Z,16.03
2023-05-22T10:39:18.896Z,16.03
2023-05-22T10:42:11.797Z,16.06
2023-05-22T10:45:13.731Z,16.16
2023-05-22T10:48:14.168Z,16.30
2023-05-22T10:51:12.468Z,16.38
2023-05-22T10:54:22.587Z,16.52
2023-05-22T10:57:32.341Z,16.60
2023-05-22T11:00:12.185Z,16.64
2023-05-22T11:03:22.106Z,16.66
2023-05-22T11:06:25.494Z,16.66
2023-05-22T11:08:57.899Z,16.66
2023-05-22T11:11:47.818Z,16.69
2023-05-22T11:14:39.519Z,16.66
2023-05-22T11:17:50.708Z,16.67
2023-05-22T11:20:52.958Z,16.71
2023-05-22T11:23:54.239Z,16.72
2023-05-22T11:26:27.218Z,16.71
2023-05-22T11:28:56.837Z,16.67
2023-05-22T11:31:47.837Z,16.61
2023-05-22T11:34:56.052Z,16.56
2023-05-22T11:37:29.276Z,16.51
2023-05-22T11:40:38.169Z,16.49
2023-05-22T11:43:40.817Z,16.48
2023-05-22T11:46:35.507Z,16.52
2023-05-22T11:49:29.440Z,16.55
2023-05-22T11:52:39.515Z,16.57
2023-05-22T11:55:24.365Z,16.63
2023-05-22T11:58:15.402Z,16.68
2023-05-22T12:01:18.822Z,16.76
2023-05-22T12:03:47.512Z,16.86
2023-05-22T12:06:56.578Z,16.89
2023-05-22T12:10:06.560Z,16.90
2023-05-22T12:13:17.968Z,16.95
2023-05-22T12:16:18.537Z,17.04
2023-05-22T12:19:08.740Z,17.18
2023-05-22T12:22:23.543Z,17.37
2023-05-22T12:25:20.588Z,17.54
2023-05-22T12:28:22.327Z,17.73
2023-05-22T12:31:36.294Z,18.02
2023-05-22T12:34:17.990Z,18.34
2023-05-22T12:37:27.408Z,18.58
2023-05-22T12:40:36.603Z,18.89
2023-05-22T12:43:16.790Z,19.06
2023-05-22T12:46:19.745Z,19.12
2023-05-22T12:48:48.105Z,19.02
2023-05-22T12:51:18.568Z,18.98
2023-05-22T12:54:31.261Z,18.94
2023-05-22T12:57:42.389Z,18.90
2023-05-22T13:00:40.354Z,18.92
2023-05-22T13:03:14.206Z,18.98
2023-05-22T13:06:24.385Z,19.05
2023-05-22T13:09:33.952Z,19.08
2023-05-22T13:12:44.653Z,19.09
2023-05-22T13:15:29.436Z,19.14
2023-05-22T13:18:18.372Z,19.13
2023-05-22T13:21:27.368Z,19.12
2023-05-22T13:24:17.511Z,19.12
2023-05-22T13:27:26.347Z,19.07
2023-05-22T13:30:18.582Z,19.07
2023-05-22T13:33:11.593Z,19.06
2023-05-22T13:36:21.197Z,19.02
2023-05-22T13:39:30.978Z,19.13
2023-05-22T13:42:30.096Z,19.17
2023-05-22T13:45:31.261Z,19.22
2023-05-22T13:48:21.614Z,19.37
2023-05-22T13:51:10.189Z,19.51
2023-05-22T13:53:48.342Z,19.60
2023-05-22T13:56:38.235Z,19.77
2023-05-22T13:59:35.456Z,20.02
2023-05-22T14:02:07.964Z,20.21
2023-05-22T14:04:53.277Z,20.42
2023-05-22T14:07:54.865Z,20.66
2023-05-22T14:10:53.272Z,20.84
2023-05-22T14:13:58.846Z,21.04
2023-05-22T14:16:53.624Z,21.28
2023-05-22T14:19:45.659Z,21.27
2023-05-22T14:22:24.037Z,21.09
2023-05-22T14:25:17.022Z,21.07
2023-05-22T14:27:49.502Z,21.12
2023-05-22T14:30:43.163Z,21.09
2023-05-22T14:33:18.245Z,21.11
2023-05-22T14:36:03.135Z,21.28
2023-05-22T14:39:03.116Z,21.34
2023-05-22T14:42:14.519Z,21.36
2023-05-22T14:45:28.873Z,21.45
2023-05-22T14:48:11.080Z,21.58
2023-05-22T14:51:22.544Z,21.69
2023-05-22T14:54:34.583Z,21.77
2023-05-22T14:57:17.468Z,21.92
2023-05-22T15:00:27.109Z,22.02
2023-05-22T15:03:28.784Z,22.19
2023-05-22T15:06:38.143Z,22.30
2023-05-22T15:09:42.037Z,22.45
2023-05-22T15:12:45.164Z,22.49
2023-05-22T15:15:39.068Z,22.55
2023-05-22T15:18:31.934Z,22.56
2023-05-22T15:21:34.660Z,22.61
2023-05-22T15:24:24.320Z,22.66
2023-05-22T15:27:25.493Z,22.78
2023-05-22T15:30:18.721Z,22.91
2023-05-22T15:33:09.222Z,23.07
2023-05-22T15:35:39.346Z,23.10
2023-05-22T15:38:13.307Z,23.17
2023-05-22T15:41:08.054Z,23.23
2023-05-22T15:44:05.967Z,23.26
2023-05-22T15:46:39.948Z,23.20
2023-05-22T15:49:34.737Z,23.28
2023-05-22T15:52:25.654Z,23.36
2023-05-22T15:55:05.184Z,23.39
2023-05-22T15:58:15.167Z,23.35
2023-05-22T16:01:24.944Z,23.34
2023-05-22T16:04:34.967Z,23.22
2023-05-22T16:07:28.145Z,23.14
2023-05-22T16:10:05.758Z,23.21
2023-05-22T16:13:05.494Z,23.20
2023-05-22T16:16:08.128Z,23.10
2023-05-22T16:19:12.720Z,23.03
2023-05-22T16:21:40.945Z,23.05
2023-05-22T16:24:51.584Z,23.11
2023-05-22T16:27:25.034Z,23.16
2023-05-22T16:29:54.453Z,23.21
2023-05-22T16:32:24.410Z,23.25
2023-05-22T16:35:10.278Z,23.19
2023-05-22T16:37:42.353Z,23.20
2023-05-22T16:40:19.258Z,23.19
2023-05-22T16:42:52.823Z,23.13
2023-05-22T16:45:28.925Z,23.09
2023-05-22T16:48:09.038Z,23.07
2023-05-22T16:50:43.918Z,23.08
2023-05-22T16:53:17.741Z,23.08
2023-05-22T16:55:47.381Z,23.13
2023-05-22T16:58:26.804Z,23.13
2023-05-22T17:01:16.476Z,23.12
2023-05-22T17:03:45.381Z,23.11
2023-05-22T17:06:14.001Z,22.99
2023-05-22T17:08:44.152Z,22.84
2023-05-22T17:11:13.091Z,22.77
2023-05-22T17:14:23.004Z,22.73
2023-05-22T17:16:54.963Z,22.65
2023-05-22T17:19:24.724Z,22.58
2023-05-22T17:22:18.473Z,22.55
2023-05-22T17:24:48.737Z,22.45
2023-05-22T17:27:31.934Z,22.36
2023-05-22T17:30:09.759Z,22.31
2023-05-22T17:32:40.791Z,22.21
2023-05-22T17:35:10.343Z,22.07
2023-05-22T17:37:39.295Z,21.95
2023-05-22T17:40:43.215Z,21.83
2023-05-22T17:43:16.812Z,21.65
2023-05-22T17:45:55.010Z,21.51
2023-05-22T17:48:28.766Z,21.42
2023-05-22T17:50:57.811Z,21.37
2023-05-22T17:53:36.175Z,21.29
2023-05-22T17:56:08.635Z,21.16
2023-05-22T17:58:59.515Z,21.04
2023-05-22T18:01:32.991Z,20.93
2023-05-22T18:04:05.546Z,20.87
2023-05-22T18:06:35.134Z,20.85
2023-05-22T18:09:19.238Z,20.86
2023-05-22T18:12:06.124Z,20.76
2023-05-22T18:14:56.996Z,20.58
2023-05-22T18:17:32.672Z,20.43
2023-05-22T18:20:30.845Z,20.30
2023-05-22T18:23:40.702Z,20.11
2023-05-22T18:26:12.974Z,19.93
2023-05-22T18:29:10.798Z,19.81
2023-05-22T18:31:40.220Z,19.70
2023-05-22T18:34:37.347Z,19.65
2023-05-22T18:37:10.795Z,19.58
2023-05-22T18:39:53.216Z,19.50
2023-05-22T18:42:27.123Z,19.37
2023-05-22T18:45:22.035Z,19.28
2023-05-22T18:47:56.942Z,19.19
2023-05-22T18:50:49.877Z,19.19
2023-05-22T18:53:40.723Z,19.09
2023-05-22T18:56:14.573Z,18.97
2023-05-22T18:58:56.603Z,18.83
2023-05-22T19:01:52.468Z,18.69
2023-05-22T19:05:04.404Z,18.55
2023-05-22T19:07:52.489Z,18.30
2023-05-22T19:10:53.227Z,18.03
2023-05-22T19:13:53.407Z,17.79
2023-05-22T19:17:01.074Z,17.49
2023-05-22T19:20:01.694Z,17.29
2023-05-22T19:23:15.774Z,17.11
2023-05-22T19:26:15.710Z,16.94
2023-05-22T19:29:10.630Z,16.77
2023-05-22T19:32:23.526Z,16.58
2023-05-22T19:35:21.514Z,16.40
2023-05-22T19:37:56.608Z,16.24
2023-05-22T19:41:09.032Z,16.12
2023-05-22T19:43:59.934Z,15.96
2023-05-22T19:47:12.028Z,15.82
2023-05-22T19:50:22.889Z,15.70
2023-05-22T19:53:27.881Z,15.56
2023-05-22T19:56:39.734Z,15.45
2023-05-22T19:59:39.618Z,15.32
2023-05-22T20:02:43.912Z,15.21
2023-05-22T20:05:45.393Z,15.13
2023-05-22T20:08:52.979Z,15.05
2023-05-22T20:12:04.230Z,14.95
2023-05-22T20:15:16.825Z,14.85
2023-05-22T20:18:29.011Z,14.74
2023-05-22T20:21:01.710Z,14.62
2023-05-22T20:24:03.483Z,14.56
2023-05-22T20:27:13.300Z,14.46
2023-05-22T20:29:54.613Z,14.34
2023-05-22T20:32:57.522Z,14.25
2023-05-22T20:35:50.258Z,14.16
2023-05-22T20:39:01.107Z,14.08
2023-05-22T20:41:55.858Z,14.00
2023-05-22T20:44:33.108Z,13.91
2023-05-22T20:47:43.111Z,13.84
2023-05-22T20:50:54.295Z,13.79
2023-05-22T20:53:59.877Z,13.75
2023-05-22T20:57:09.465Z,13.70
2023-05-22T21:00:10.631Z,13.64
2023-05-22T21:03:24.172Z,13.58
2023-05-22T21:06:28.912Z,13.51
2023-05-22T21:09:39.042Z,13.46
2023-05-22T21:12:49.277Z,13.40
2023-05-22T21:15:59.373Z,13.32
2023-05-22T21:19:09.643Z,13.21
2023-05-22T21:22:18.880Z,13.16
2023-05-22T21:25:28.790Z,13.11
2023-05-22T21:28:39.140Z,13.06
2023-05-22T21:31:51.588Z,13.00
2023-05-22T21:35:03.473Z,12.95
2023-05-22T21:38:06.996Z,12.89
2023-05-22T21:41:17.901Z,12.84
2023-05-22T21:44:12.248Z,12.75
2023-05-22T21:47:09.076Z,12.68
2023-05-22T21:50:18.791Z,12.61
2023-05-22T21:53:28.933Z,12.56
2023-05-22T21:56:39.682Z,12.49
2023-05-22T21:59:50.388Z,12.43
2023-05-22T22:02:59.666Z,12.38
2023-05-22T22:05:49.465Z,12.34
2023-05-22T22:09:00.397Z,12.30
2023-05-22T22:12:07.315Z,12.26
2023-05-22T22:15:19.195Z,12.21
2023-05-22T22:18:30.079Z,12.17
2023-05-22T22:21:37.981Z,12.13
2023-05-22T22:24:36.959Z,12.08
2023-05-22T22:27:21.799Z,12.03
2023-05-22T22:30:24.811Z,12.01
2023-05-22T22:33:34.046Z,11.95
2023-05-22T22:36:34.505Z,11.93
2023-05-22T22:39:34.786Z,11.89
2023-05-22T22:42:45.242Z,11.86
2023-05-22T22:45:34.169Z,11.83
2023-05-22T22:48:45.116Z,11.82
2023-05-22T22:51:37.251Z,11.81
2023-05-22T22:54:22.839Z,11.77
2023-05-22T22:57:09.809Z,11.75
2023-05-22T23:00:19.794Z,11.74
2023-05-22T23:03:20.650Z,11.71
2023-05-22T23:05:59.162Z,11.66
2023-05-22T23:09:01.437Z,11.63
2023-05-22T23:12:09.432Z,11.56
2023-05-22T23:14:38.660Z,11.48
2023-05-22T23:17:08.351Z,11.41
2023-05-22T23:20:08.850Z,11.39
2023-05-22T23:23:11.986Z,11.36
2023-05-22T23:25:59.895Z,11.35
2023-05-22T23:28:50.765Z,11.32
2023-05-22T23:31:21.719Z,11.26
2023-05-22T23:34:06.630Z,11.22
2023-05-22T23:36:49.731Z,11.19
2023-05-22T23:39:34.622Z,11.17
2023-05-22T23:42:22.358Z,11.16
2023-05-22T23:45:12.329Z,11.15
2023-05-22T23:48:12.035Z,11.16
2023-05-22T23:51:03.154Z,11.09
2023-05-22T23:53:32.005Z,11.01
2023-05-22T23:56:05.342Z,10.98
2023-05-22T23:58:34.822Z,10.94
